Terminal Aerodrome Forecast
Issued by NWS Bismarck, ND

Home | Current Version | Previous Version | Graphics & Text | Print | Product List | Glossary On
Versions: 1 2 3 4 5 6 7 8 9 10 11 12 13 14 15 16 17 18
000
FTUS43 KBIS 302224 AAE
TAFISN
TAF AMD
KISN 302224Z 3022/0118 33010KT P6SM -SN OVC015
     FM010000 33007KT P6SM -SN OVC010
     FM011200 00000KT P6SM OVC010=

USA.gov is the U.S. government's official web portal to all federal, state and local government web resources and services.